createdAt,value
2017-09-28T00:00:17.873Z,91.60
2017-09-28T00:02:46.247Z,91.10
2017-09-28T00:05:14.648Z,91.00
2017-09-28T00:07:43.029Z,90.90
2017-09-28T00:10:11.431Z,91.00
2017-09-28T00:12:39.856Z,91.00
2017-09-28T00:15:08.268Z,90.90
2017-09-28T00:17:36.670Z,91.00
2017-09-28T00:20:05.051Z,91.10
2017-09-28T00:22:33.707Z,91.20
2017-09-28T00:25:02.174Z,90.90
2017-09-28T00:27:30.572Z,91.00
2017-09-28T00:29:58.978Z,90.80
2017-09-28T00:32:27.373Z,90.70
2017-09-28T00:34:55.992Z,90.70
2017-09-28T00:37:24.388Z,91.00
2017-09-28T00:39:52.818Z,91.00
2017-09-28T00:42:22.004Z,91.20
2017-09-28T00:44:51.151Z,90.80
2017-09-28T00:47:19.736Z,90.70
2017-09-28T00:49:48.128Z,90.70
2017-09-28T00:52:16.527Z,91.00
2017-09-28T00:54:44.922Z,91.50
2017-09-28T00:57:13.296Z,91.30
2017-09-28T00:59:41.935Z,91.10
2017-09-28T01:02:10.328Z,91.40
2017-09-28T01:04:38.702Z,91.20
2017-09-28T01:07:07.115Z,91.30
2017-09-28T01:09:35.515Z,91.00
2017-09-28T01:12:04.843Z,91.10
2017-09-28T01:14:33.235Z,91.10
2017-09-28T01:17:01.799Z,91.20
2017-09-28T01:19:30.232Z,91.60
2017-09-28T01:21:58.614Z,91.50
2017-09-28T01:24:27.808Z,91.90
2017-09-28T01:26:56.191Z,91.50
2017-09-28T01:29:24.572Z,91.60
2017-09-28T01:31:53.799Z,92.40
2017-09-28T01:34:22.174Z,92.40
2017-09-28T01:36:50.623Z,92.80
2017-09-28T01:39:19.782Z,92.60
2017-09-28T01:41:48.178Z,92.80
2017-09-28T01:44:16.607Z,93.20
2017-09-28T01:46:44.999Z,93.20
2017-09-28T01:49:13.652Z,92.90
2017-09-28T01:51:42.791Z,93.20
2017-09-28T01:54:11.250Z,93.20
2017-09-28T01:56:39.675Z,93.10
2017-09-28T01:59:08.093Z,93.30
2017-09-28T02:01:38.035Z,93.50
2017-09-28T02:04:06.419Z,93.50
2017-09-28T02:06:34.816Z,93.40
2017-09-28T02:09:03.275Z,93.30
2017-09-28T02:11:31.671Z,93.50
2017-09-28T02:14:00.352Z,93.00
2017-09-28T02:16:28.745Z,93.20
2017-09-28T02:18:57.135Z,93.20
2017-09-28T02:21:25.543Z,93.20
2017-09-28T02:23:55.058Z,92.80
2017-09-28T02:26:24.529Z,92.80
2017-09-28T02:28:53.587Z,92.60
2017-09-28T02:31:22.538Z,92.20
2017-09-28T02:33:52.674Z,92.30
2017-09-28T02:36:21.662Z,92.30
2017-09-28T02:38:51.733Z,92.30
2017-09-28T02:41:21.453Z,92.50
2017-09-28T02:43:49.837Z,92.70
2017-09-28T02:46:19.028Z,92.80
2017-09-28T02:48:47.408Z,92.80
2017-09-28T02:51:15.819Z,92.10
2017-09-28T02:53:44.198Z,91.80
2017-09-28T02:56:12.572Z,92.20
2017-09-28T02:58:41.744Z,92.70
2017-09-28T03:01:10.123Z,92.70
2017-09-28T03:03:38.769Z,92.60
2017-09-28T03:06:07.144Z,92.90
2017-09-28T03:08:35.524Z,92.80
2017-09-28T03:11:03.921Z,92.80
2017-09-28T03:13:32.314Z,92.60
2017-09-28T03:16:00.738Z,92.60
2017-09-28T03:18:29.122Z,92.60
2017-09-28T03:20:57.499Z,92.60
2017-09-28T03:23:25.908Z,92.60
2017-09-28T03:25:54.292Z,92.80
2017-09-28T03:28:22.735Z,93.30
2017-09-28T03:30:51.106Z,93.70
2017-09-28T03:33:19.479Z,93.60
2017-09-28T03:35:47.886Z,93.60
2017-09-28T03:38:16.269Z,93.50
2017-09-28T03:40:44.962Z,93.10
2017-09-28T03:43:13.339Z,93.00
2017-09-28T03:45:41.715Z,93.10
2017-09-28T03:48:10.115Z,93.30
2017-09-28T03:50:38.495Z,93.40
2017-09-28T03:53:07.160Z,93.20
2017-09-28T03:55:35.538Z,93.00
2017-09-28T03:58:03.911Z,93.50
2017-09-28T04:00:32.320Z,93.60
2017-09-28T04:03:00.699Z,93.70
2017-09-28T04:05:29.123Z,93.40
2017-09-28T04:07:57.500Z,93.00
2017-09-28T04:10:26.735Z,93.00
2017-09-28T04:12:55.136Z,93.10
2017-09-28T04:15:23.506Z,92.90
2017-09-28T04:17:51.940Z,93.10
2017-09-28T04:20:20.316Z,92.80
2017-09-28T04:22:48.720Z,92.90
2017-09-28T04:25:17.127Z,92.40
2017-09-28T04:27:45.548Z,92.40
2017-09-28T04:30:14.270Z,92.20
2017-09-28T04:32:42.655Z,92.30
2017-09-28T04:35:11.038Z,92.70
2017-09-28T04:37:39.459Z,92.00
2017-09-28T04:40:08.599Z,91.90
2017-09-28T04:42:37.290Z,91.80
2017-09-28T04:45:05.874Z,91.90
2017-09-28T04:47:34.247Z,92.00
2017-09-28T04:50:02.655Z,92.10
2017-09-28T04:52:31.035Z,92.20
2017-09-28T04:54:59.461Z,92.30
2017-09-28T04:57:27.830Z,92.30
2017-09-28T04:59:56.222Z,92.30
2017-09-28T05:02:24.636Z,92.50
2017-09-28T05:04:53.047Z,92.50
2017-09-28T05:07:22.233Z,91.80
2017-09-28T05:09:50.610Z,91.80
2017-09-28T05:12:18.986Z,92.00
2017-09-28T05:14:47.395Z,91.90
2017-09-28T05:17:15.771Z,91.80
2017-09-28T05:19:44.487Z,91.90
2017-09-28T05:22:12.959Z,91.70
2017-09-28T05:24:41.487Z,91.70
2017-09-28T05:27:09.929Z,91.80
2017-09-28T05:29:38.348Z,91.30
2017-09-28T05:32:07.223Z,91.30
2017-09-28T05:34:35.752Z,91.10
2017-09-28T05:37:04.169Z,90.80
2017-09-28T05:39:32.670Z,90.40
2017-09-28T05:42:01.071Z,89.70
2017-09-28T05:44:30.425Z,87.70
2017-09-28T05:46:58.925Z,87.50
2017-09-28T05:49:27.308Z,85.50
2017-09-28T05:51:55.719Z,83.30
2017-09-28T05:54:24.864Z,79.40
2017-09-28T05:56:53.448Z,79.20
2017-09-28T05:59:21.827Z,77.50
2017-09-28T06:01:50.251Z,74.70
2017-09-28T06:04:19.438Z,70.80
2017-09-28T06:06:47.822Z,70.70
2017-09-28T06:09:16.355Z,69.40
2017-09-28T06:11:44.811Z,67.80
2017-09-28T06:14:13.186Z,66.20
2017-09-28T06:16:41.599Z,66.10
2017-09-28T06:19:09.988Z,66.50
2017-09-28T06:21:38.596Z,68.70
2017-09-28T06:24:06.979Z,70.70
2017-09-28T06:26:35.374Z,73.20
2017-09-28T06:29:04.557Z,76.80
2017-09-28T06:31:32.944Z,76.80
2017-09-28T06:34:02.295Z,73.20
2017-09-28T06:36:30.680Z,73.10
2017-09-28T06:38:59.063Z,72.30
2017-09-28T06:41:27.471Z,72.80
2017-09-28T06:43:55.858Z,72.30
2017-09-28T06:46:24.290Z,71.80
2017-09-28T06:48:52.675Z,72.00
2017-09-28T06:51:21.059Z,71.00
2017-09-28T06:53:49.502Z,69.50
2017-09-28T06:56:17.888Z,67.90
2017-09-28T06:58:46.484Z,66.10
2017-09-28T07:01:14.878Z,64.30
2017-09-28T07:03:43.264Z,64.80
2017-09-28T07:06:11.688Z,62.70
2017-09-28T07:08:40.119Z,61.00
2017-09-28T07:11:08.783Z,59.40
2017-09-28T07:13:37.176Z,57.40
2017-09-28T07:16:05.565Z,57.50
2017-09-28T07:18:33.992Z,57.90
2017-09-28T07:21:02.404Z,59.40
2017-09-28T07:23:31.093Z,59.20
2017-09-28T07:25:59.571Z,59.20
2017-09-28T07:28:27.952Z,62.90
2017-09-28T07:30:56.367Z,63.40
2017-09-28T07:33:25.515Z,63.70
2017-09-28T07:35:53.944Z,63.40
2017-09-28T07:38:23.098Z,66.50
2017-09-28T07:40:51.490Z,66.30
2017-09-28T07:43:19.900Z,65.30
2017-09-28T07:45:49.053Z,64.10
2017-09-28T07:48:17.617Z,64.10
2017-09-28T07:50:46.011Z,61.80
2017-09-28T07:53:14.414Z,60.50
2017-09-28T07:55:42.830Z,60.10
2017-09-28T07:58:11.215Z,61.70
2017-09-28T08:00:39.843Z,61.90
2017-09-28T08:03:08.232Z,62.80
2017-09-28T08:05:36.619Z,62.60
2017-09-28T08:08:05.027Z,61.30
2017-09-28T08:10:34.175Z,59.10
2017-09-28T08:13:02.852Z,59.00
2017-09-28T08:15:31.254Z,58.10
2017-09-28T08:17:59.639Z,57.80
2017-09-28T08:20:28.051Z,56.80
2017-09-28T08:22:56.455Z,56.00
2017-09-28T08:25:25.043Z,56.30
2017-09-28T08:27:53.456Z,56.40
2017-09-28T08:30:21.838Z,56.40
2017-09-28T08:32:50.253Z,57.60
2017-09-28T08:35:18.639Z,58.30
2017-09-28T08:37:47.040Z,57.20
2017-09-28T08:40:15.451Z,56.70
2017-09-28T08:42:44.614Z,57.60
2017-09-28T08:45:13.005Z,57.50
2017-09-28T08:47:41.412Z,57.80
2017-09-28T08:50:09.794Z,57.60
2017-09-28T08:52:38.541Z,57.00
2017-09-28T08:55:06.932Z,56.70
2017-09-28T08:57:35.315Z,56.60
2017-09-28T09:00:03.724Z,57.10
2017-09-28T09:02:32.873Z,57.10
2017-09-28T09:05:01.868Z,57.10
2017-09-28T09:07:30.260Z,56.20
2017-09-28T09:09:59.508Z,56.10
2017-09-28T09:12:28.679Z,55.40
2017-09-28T09:14:57.831Z,56.20
2017-09-28T09:17:26.527Z,56.20
2017-09-28T09:19:54.919Z,57.00
2017-09-28T09:22:23.309Z,56.60
2017-09-28T09:24:51.725Z,56.60
2017-09-28T09:27:20.106Z,57.00
2017-09-28T09:29:48.920Z,56.30
2017-09-28T09:32:17.311Z,55.90
2017-09-28T09:34:45.716Z,55.40
2017-09-28T09:37:14.131Z,55.90
2017-09-28T09:39:42.526Z,55.40
2017-09-28T09:42:10.951Z,55.10
2017-09-28T09:44:39.331Z,53.70
2017-09-28T09:47:07.724Z,52.80
2017-09-28T09:49:36.166Z,52.80
2017-09-28T09:52:04.533Z,52.80
2017-09-28T09:54:32.992Z,52.50
2017-09-28T09:57:01.370Z,53.80
2017-09-28T09:59:29.747Z,52.80
2017-09-28T10:01:58.196Z,53.10
2017-09-28T10:04:26.760Z,52.60
2017-09-28T10:07:04.676Z,52.50
2017-09-28T10:09:47.428Z,52.50
2017-09-28T10:12:35.547Z,52.60
2017-09-28T10:15:24.710Z,52.40
2017-09-28T10:17:53.904Z,52.90
2017-09-28T10:20:23.116Z,52.90
2017-09-28T10:22:52.767Z,52.10
2017-09-28T10:25:21.151Z,52.00
2017-09-28T10:27:49.527Z,51.70
2017-09-28T10:30:17.932Z,52.90
2017-09-28T10:32:47.092Z,53.30
2017-09-28T10:35:16.908Z,53.20
2017-09-28T10:37:45.315Z,53.00
2017-09-28T10:40:13.691Z,53.70
2017-09-28T10:42:42.891Z,54.10
2017-09-28T10:45:11.298Z,54.00
2017-09-28T10:47:39.926Z,53.90
2017-09-28T10:50:08.310Z,53.30
2017-09-28T10:52:36.694Z,53.80
2017-09-28T10:55:05.096Z,53.60
2017-09-28T10:57:33.475Z,54.60
2017-09-28T11:00:02.018Z,53.80
2017-09-28T11:02:30.403Z,53.70
2017-09-28T11:04:58.783Z,54.50
2017-09-28T11:07:27.192Z,54.20
2017-09-28T11:09:55.640Z,54.90
2017-09-28T11:12:24.220Z,55.10
2017-09-28T11:14:52.606Z,54.90
2017-09-28T11:17:21.004Z,54.80
2017-09-28T11:19:49.415Z,55.00
2017-09-28T11:22:17.824Z,54.80
2017-09-28T11:24:46.387Z,54.90
2017-09-28T11:27:14.763Z,54.50
2017-09-28T11:29:43.147Z,54.70
2017-09-28T11:32:11.554Z,55.70
2017-09-28T11:34:39.931Z,55.20
2017-09-28T11:37:08.515Z,54.80
2017-09-28T11:39:36.894Z,54.10
2017-09-28T11:42:05.282Z,53.40
2017-09-28T11:44:33.692Z,53.40
2017-09-28T11:47:02.062Z,53.20
2017-09-28T11:49:30.602Z,54.10
2017-09-28T11:51:59.007Z,53.70
2017-09-28T11:54:27.391Z,54.30
2017-09-28T11:56:55.796Z,53.60
2017-09-28T11:59:24.942Z,52.30
2017-09-28T12:01:53.526Z,52.20
2017-09-28T12:04:21.905Z,51.50
2017-09-28T12:06:50.283Z,51.80
2017-09-28T12:09:18.690Z,52.80
2017-09-28T12:11:47.058Z,52.40
2017-09-28T12:14:15.832Z,52.10
2017-09-28T12:16:44.207Z,51.50
2017-09-28T12:19:12.596Z,51.30
2017-09-28T12:21:40.989Z,51.40
2017-09-28T12:24:09.370Z,51.70
2017-09-28T12:26:38.946Z,50.00
2017-09-28T12:29:07.325Z,50.00
2017-09-28T12:31:35.713Z,49.90
2017-09-28T12:34:04.110Z,48.20
2017-09-28T12:36:32.574Z,48.60
2017-09-28T12:39:01.223Z,48.10
2017-09-28T12:41:29.605Z,47.70
2017-09-28T12:43:57.991Z,48.00
2017-09-28T12:46:26.419Z,48.40
2017-09-28T12:48:54.796Z,47.80
2017-09-28T12:51:23.226Z,48.30
2017-09-28T12:53:51.603Z,48.60
2017-09-28T12:56:19.980Z,50.50
2017-09-28T12:58:48.390Z,49.40
2017-09-28T13:01:16.797Z,49.80
2017-09-28T13:03:45.541Z,51.10
2017-09-28T13:06:13.912Z,51.30
2017-09-28T13:08:42.292Z,50.50
2017-09-28T13:11:10.699Z,50.80
2017-09-28T13:13:39.096Z,51.60
2017-09-28T13:16:08.294Z,52.50
2017-09-28T13:18:36.671Z,52.50
2017-09-28T13:21:05.820Z,52.40
2017-09-28T13:23:34.219Z,52.40
2017-09-28T13:26:02.602Z,52.40
2017-09-28T13:28:31.167Z,51.30
2017-09-28T13:30:59.547Z,49.60
2017-09-28T13:33:27.926Z,49.60
2017-09-28T13:35:56.325Z,49.90
2017-09-28T13:38:24.703Z,49.50
2017-09-28T13:40:53.375Z,49.80
2017-09-28T13:43:21.747Z,48.90
2017-09-28T13:45:50.129Z,48.60
2017-09-28T13:48:18.534Z,49.10
2017-09-28T13:50:46.908Z,48.40
2017-09-28T13:53:15.566Z,49.30
2017-09-28T13:55:43.943Z,50.40
2017-09-28T13:58:12.319Z,51.20
2017-09-28T14:00:40.809Z,49.10
2017-09-28T14:03:09.186Z,50.10
2017-09-28T14:05:37.760Z,49.30
2017-09-28T14:08:06.141Z,50.60
2017-09-28T14:10:34.521Z,50.90
2017-09-28T14:13:02.926Z,51.10
2017-09-28T14:15:31.305Z,51.20
2017-09-28T14:17:59.867Z,51.60
2017-09-28T14:20:28.392Z,51.50
2017-09-28T14:22:57.538Z,52.70
2017-09-28T14:25:25.942Z,52.70
2017-09-28T14:27:54.332Z,53.00
2017-09-28T14:30:22.778Z,54.20
2017-09-28T14:32:51.581Z,52.50
2017-09-28T14:35:19.981Z,53.20
2017-09-28T14:37:48.388Z,52.90
2017-09-28T14:40:16.780Z,54.10
2017-09-28T14:42:45.380Z,54.90
2017-09-28T14:45:13.765Z,55.40
2017-09-28T14:47:42.147Z,56.80
2017-09-28T14:50:10.549Z,57.90
2017-09-28T14:52:38.936Z,58.00
2017-09-28T14:55:07.687Z,57.60
2017-09-28T14:57:36.722Z,58.30
2017-09-28T15:00:05.103Z,59.00
2017-09-28T15:02:34.270Z,59.70
2017-09-28T15:05:02.643Z,59.70
2017-09-28T15:07:31.454Z,59.70
2017-09-28T15:09:59.844Z,59.70
2017-09-28T15:12:28.995Z,59.80
2017-09-28T15:14:57.426Z,59.80
2017-09-28T15:17:26.570Z,60.40
2017-09-28T15:19:55.011Z,60.40
2017-09-28T15:22:23.388Z,58.30
2017-09-28T15:24:51.778Z,57.20
2017-09-28T15:27:20.184Z,57.40
2017-09-28T15:29:48.581Z,58.20
2017-09-28T15:32:17.363Z,58.60
2017-09-28T15:34:45.772Z,59.20
2017-09-28T15:37:15.471Z,59.30
2017-09-28T15:39:43.937Z,59.20
2017-09-28T15:42:12.375Z,59.00
2017-09-28T15:44:40.882Z,60.60
2017-09-28T15:47:09.324Z,59.30
2017-09-28T15:49:37.820Z,59.40
2017-09-28T15:52:06.223Z,60.50
2017-09-28T15:54:34.611Z,60.30
2017-09-28T15:57:03.291Z,60.00
2017-09-28T15:59:31.695Z,60.60
2017-09-28T16:02:00.111Z,60.50
2017-09-28T16:04:28.528Z,59.80
2017-09-28T16:06:56.930Z,59.50
2017-09-28T16:09:25.591Z,59.80
2017-09-28T16:11:53.998Z,58.90
2017-09-28T16:14:23.265Z,59.50
2017-09-28T16:16:51.707Z,59.50
2017-09-28T16:19:20.508Z,59.40
2017-09-28T16:21:49.255Z,60.40
2017-09-28T16:24:17.764Z,61.50
2017-09-28T16:26:46.192Z,60.80
2017-09-28T16:29:14.642Z,61.30
2017-09-28T16:31:43.038Z,62.00
2017-09-28T16:34:11.806Z,62.30
2017-09-28T16:36:40.240Z,63.10
2017-09-28T16:39:08.643Z,63.30
2017-09-28T16:41:37.970Z,64.90
2017-09-28T16:44:06.523Z,64.90
2017-09-28T16:46:36.301Z,66.60
2017-09-28T16:49:04.744Z,66.60
2017-09-28T16:51:33.347Z,66.90
2017-09-28T16:54:01.779Z,68.60
2017-09-28T16:56:30.218Z,69.40
2017-09-28T16:58:58.622Z,70.10
2017-09-28T17:01:27.806Z,71.60
2017-09-28T17:03:56.195Z,71.60
2017-09-28T17:06:25.718Z,74.00
2017-09-28T17:08:54.327Z,74.00
2017-09-28T17:11:22.786Z,75.60
2017-09-28T17:13:52.535Z,77.00
2017-09-28T17:16:21.428Z,77.00
2017-09-28T17:18:50.024Z,78.10
2017-09-28T17:21:20.404Z,79.70
2017-09-28T17:23:48.985Z,80.20
2017-09-28T17:26:19.565Z,80.50
2017-09-28T17:28:48.534Z,80.60
2017-09-28T17:31:17.525Z,81.30
2017-09-28T17:33:47.101Z,83.00
2017-09-28T17:36:16.142Z,83.70
2017-09-28T17:38:46.380Z,83.50
2017-09-28T17:41:14.932Z,84.30
2017-09-28T17:43:44.119Z,84.70
2017-09-28T17:46:15.436Z,85.00
2017-09-28T17:48:45.963Z,86.10
2017-09-28T17:51:15.809Z,86.40
2017-09-28T17:53:45.908Z,86.30
2017-09-28T17:56:15.721Z,87.10
2017-09-28T17:58:44.642Z,87.70
2017-09-28T18:01:14.529Z,88.40
2017-09-28T18:03:42.969Z,88.30
2017-09-28T18:06:11.851Z,88.50
2017-09-28T18:08:40.960Z,88.80
2017-09-28T18:11:10.381Z,89.20
2017-09-28T18:13:40.660Z,89.60
2017-09-28T18:16:11.058Z,89.90
2017-09-28T18:18:42.631Z,90.20
2017-09-28T18:21:12.287Z,90.30
2017-09-28T18:23:41.448Z,90.50
2017-09-28T18:26:09.885Z,90.50
2017-09-28T18:28:39.830Z,90.50
2017-09-28T18:31:08.902Z,90.50
2017-09-28T18:33:38.320Z,90.60
2017-09-28T18:36:08.525Z,90.90
2017-09-28T18:38:37.534Z,90.90
2017-09-28T18:41:06.256Z,90.90
2017-09-28T18:43:36.744Z,90.90
2017-09-28T18:46:06.610Z,91.00
2017-09-28T18:48:35.287Z,91.00
2017-09-28T18:51:04.508Z,91.10
2017-09-28T18:53:36.122Z,91.40
2017-09-28T18:56:08.871Z,91.50
2017-09-28T18:58:39.407Z,91.50
2017-09-28T19:01:13.074Z,91.40
2017-09-28T19:03:44.125Z,91.30
2017-09-28T19:06:17.863Z,91.50
2017-09-28T19:08:48.609Z,91.50
2017-09-28T19:11:19.015Z,91.50
2017-09-28T19:13:47.693Z,91.60
2017-09-28T19:16:19.011Z,91.70
2017-09-28T19:18:47.421Z,91.70
2017-09-28T19:21:16.003Z,91.70
2017-09-28T19:23:44.442Z,91.70
2017-09-28T19:26:12.835Z,91.80
2017-09-28T19:28:41.802Z,91.80
2017-09-28T19:31:11.243Z,92.00
2017-09-28T19:33:39.664Z,92.00
2017-09-28T19:36:08.875Z,92.00
2017-09-28T19:38:37.255Z,92.00
2017-09-28T19:41:06.491Z,91.80
2017-09-28T19:43:35.206Z,92.10
2017-09-28T19:46:03.677Z,92.30
2017-09-28T19:48:32.882Z,92.50
2017-09-28T19:51:01.865Z,92.70
2017-09-28T19:53:32.019Z,92.30
2017-09-28T19:56:00.922Z,92.50
2017-09-28T19:58:29.979Z,92.40
2017-09-28T20:00:58.478Z,92.20
2017-09-28T20:03:27.423Z,92.20
2017-09-28T20:05:56.642Z,92.50
2017-09-28T20:08:25.771Z,92.40
2017-09-28T20:10:54.203Z,92.30
2017-09-28T20:13:22.993Z,92.40
2017-09-28T20:15:51.700Z,92.50
2017-09-28T20:18:20.898Z,92.40
2017-09-28T20:20:49.314Z,92.40
2017-09-28T20:23:18.682Z,92.60
2017-09-28T20:25:47.129Z,92.60
2017-09-28T20:28:15.728Z,92.40
2017-09-28T20:30:44.429Z,92.60
2017-09-28T20:33:12.888Z,92.70
2017-09-28T20:35:41.293Z,92.80
2017-09-28T20:38:09.912Z,92.70
2017-09-28T20:40:39.075Z,93.00
2017-09-28T20:43:07.805Z,93.00
2017-09-28T20:45:36.282Z,92.80
2017-09-28T20:48:05.440Z,92.80
2017-09-28T20:50:34.036Z,92.70
2017-09-28T20:53:02.456Z,92.60
2017-09-28T20:55:30.878Z,92.60
2017-09-28T20:57:59.400Z,92.50
2017-09-28T21:00:27.990Z,92.50
2017-09-28T21:02:56.461Z,92.50
2017-09-28T21:05:25.611Z,92.80
2017-09-28T21:07:54.095Z,92.80
2017-09-28T21:10:22.524Z,92.90
2017-09-28T21:12:50.951Z,92.90
2017-09-28T21:15:19.738Z,93.00
2017-09-28T21:17:48.118Z,93.10
2017-09-28T21:20:16.516Z,93.30
2017-09-28T21:22:45.051Z,93.20
2017-09-28T21:25:13.479Z,93.40
2017-09-28T21:27:42.166Z,93.50
2017-09-28T21:30:10.561Z,93.30
2017-09-28T21:32:38.947Z,93.50
2017-09-28T21:35:08.131Z,93.70
2017-09-28T21:37:37.294Z,93.60
2017-09-28T21:40:05.762Z,93.80
2017-09-28T21:42:34.500Z,93.90
2017-09-28T21:45:05.541Z,94.00
2017-09-28T21:47:35.322Z,93.90
2017-09-28T21:50:04.887Z,94.10
2017-09-28T21:52:35.295Z,93.70
2017-09-28T21:55:04.860Z,93.40
2017-09-28T21:57:34.395Z,93.40
2017-09-28T22:00:05.448Z,93.40
2017-09-28T22:02:35.836Z,93.10
2017-09-28T22:05:06.380Z,93.10
2017-09-28T22:07:36.278Z,93.20
2017-09-28T22:10:06.494Z,93.40
2017-09-28T22:12:36.413Z,93.20
2017-09-28T22:15:06.043Z,93.30
2017-09-28T22:17:35.440Z,93.20
2017-09-28T22:20:06.227Z,93.40
2017-09-28T22:22:36.600Z,92.90
2017-09-28T22:25:06.725Z,93.10
2017-09-28T22:27:36.942Z,93.10
2017-09-28T22:30:07.224Z,92.90
2017-09-28T22:32:37.338Z,93.00
2017-09-28T22:35:07.935Z,92.80
2017-09-28T22:37:36.377Z,92.70
2017-09-28T22:40:04.786Z,93.00
2017-09-28T22:42:33.974Z,93.00
2017-09-28T22:45:03.128Z,93.00
2017-09-28T22:47:31.811Z,93.00
2017-09-28T22:50:00.211Z,93.20
2017-09-28T22:52:28.596Z,93.10
2017-09-28T22:54:57.001Z,93.20
2017-09-28T22:57:26.145Z,93.00
2017-09-28T22:59:54.864Z,93.00
2017-09-28T23:02:23.259Z,93.10
2017-09-28T23:04:51.651Z,93.40
2017-09-28T23:07:20.821Z,93.50
2017-09-28T23:09:49.200Z,93.50
2017-09-28T23:12:17.958Z,93.80
2017-09-28T23:14:46.339Z,93.80
2017-09-28T23:17:15.535Z,93.70
2017-09-28T23:19:44.733Z,93.50
2017-09-28T23:22:13.500Z,93.10
2017-09-28T23:24:42.023Z,92.80
2017-09-28T23:27:10.409Z,92.90
2017-09-28T23:29:38.793Z,92.80
2017-09-28T23:34:41.616Z,93.30
2017-09-28T23:37:10.071Z,93.40
2017-09-28T23:39:38.518Z,93.00
2017-09-28T23:42:06.905Z,93.00
2017-09-28T23:44:35.307Z,93.00
2017-09-28T23:47:03.691Z,93.30
2017-09-28T23:49:32.952Z,92.90
2017-09-28T23:52:01.884Z,93.20
2017-09-28T23:54:30.276Z,92.80
2017-09-28T23:56:59.192Z,93.10
2017-09-28T23:59:27.596Z,92.90
